createdAt,value
2023-03-22T00:01:31.088Z,18.17
2023-03-22T00:03:59.785Z,20.50
2023-03-22T00:06:28.241Z,16.80
2023-03-22T00:08:56.531Z,18.87
2023-03-22T00:11:26.518Z,18.13
2023-03-22T00:13:55.119Z,18.03
2023-03-22T00:16:23.592Z,19.57
2023-03-22T00:18:51.886Z,16.23
2023-03-22T00:21:20.222Z,18.67
2023-03-22T00:23:48.607Z,18.17
2023-03-22T00:26:16.756Z,17.43
2023-03-22T00:28:46.559Z,18.67
2023-03-22T00:31:15.862Z,17.53
2023-03-22T00:33:44.259Z,18.20
2023-03-22T00:36:13.366Z,17.77
2023-03-22T00:38:43.459Z,16.33
2023-03-22T00:41:15.990Z,16.73
2023-03-22T00:43:48.335Z,16.50
2023-03-22T00:46:17.897Z,18.03
2023-03-22T00:48:46.442Z,16.70
2023-03-22T00:51:15.878Z,16.30
2023-03-22T00:53:44.849Z,17.13
2023-03-22T00:56:15.810Z,18.60
2023-03-22T00:59:08.474Z,15.73
2023-03-22T01:01:36.731Z,15.50
2023-03-22T01:04:05.539Z,16.70
2023-03-22T01:06:33.930Z,16.77
2023-03-22T01:09:02.582Z,18.00
2023-03-22T01:11:30.787Z,16.03
2023-03-22T01:13:59.600Z,16.63
2023-03-22T01:16:29.104Z,19.40
2023-03-22T01:18:57.380Z,17.07
2023-03-22T01:21:25.840Z,18.00
2023-03-22T01:23:54.363Z,16.70
2023-03-22T01:26:22.546Z,19.03
2023-03-22T01:28:51.249Z,17.80
2023-03-22T01:31:19.425Z,19.60
2023-03-22T01:33:49.275Z,19.27
2023-03-22T01:36:17.407Z,20.03
2023-03-22T01:38:45.900Z,18.50
2023-03-22T01:41:14.215Z,20.33
2023-03-22T01:43:43.852Z,21.03
2023-03-22T01:46:12.977Z,20.17
2023-03-22T01:48:46.105Z,20.63
2023-03-22T01:51:19.798Z,20.17
2023-03-22T01:54:22.843Z,18.77
2023-03-22T01:56:51.786Z,18.60
2023-03-22T01:59:30.607Z,20.20
2023-03-22T02:02:22.119Z,18.33
2023-03-22T02:04:58.898Z,18.90
2023-03-22T02:07:31.811Z,19.50
2023-03-22T02:10:01.701Z,18.20
2023-03-22T02:12:52.556Z,19.97
2023-03-22T02:15:42.919Z,20.43
2023-03-22T02:18:51.938Z,19.33
2023-03-22T02:21:39.780Z,18.27
2023-03-22T02:24:46.071Z,17.80
2023-03-22T02:27:26.713Z,18.57
2023-03-22T02:30:07.072Z,18.27
2023-03-22T02:33:07.327Z,20.20
2023-03-22T02:35:50.451Z,26.00
2023-03-22T02:38:58.977Z,22.53
2023-03-22T02:41:37.346Z,26.57
2023-03-22T02:44:11.137Z,32.00
2023-03-22T02:46:45.976Z,28.63
2023-03-22T02:49:21.039Z,26.10
2023-03-22T02:51:54.674Z,18.57
2023-03-22T02:54:29.996Z,17.43
2023-03-22T02:57:03.589Z,18.20
2023-03-22T02:59:34.728Z,20.07
2023-03-22T03:02:04.645Z,17.17
2023-03-22T03:04:37.438Z,16.17
2023-03-22T03:07:10.323Z,18.57
2023-03-22T03:09:42.294Z,18.80
2023-03-22T03:12:15.996Z,16.13
2023-03-22T03:14:44.260Z,19.23
2023-03-22T03:17:24.254Z,19.30
2023-03-22T03:20:07.955Z,20.10
2023-03-22T03:22:47.564Z,17.73
2023-03-22T03:25:26.576Z,18.77
2023-03-22T03:28:03.529Z,17.93
2023-03-22T03:30:38.982Z,17.37
2023-03-22T03:33:10.603Z,18.93
2023-03-22T03:35:45.388Z,17.07
2023-03-22T03:38:17.478Z,18.47
2023-03-22T03:40:51.545Z,19.17
2023-03-22T03:43:20.671Z,19.73
2023-03-22T03:45:49.006Z,18.23
2023-03-22T03:48:22.469Z,19.00
2023-03-22T03:50:53.948Z,18.77
2023-03-22T03:53:22.381Z,19.23
2023-03-22T03:55:51.875Z,19.20
2023-03-22T03:58:20.161Z,16.70
2023-03-22T04:00:50.217Z,18.50
2023-03-22T04:03:37.791Z,16.17
2023-03-22T04:06:25.888Z,18.90
2023-03-22T04:08:58.601Z,18.57
2023-03-22T04:11:33.700Z,18.37
2023-03-22T04:14:04.260Z,17.80
2023-03-22T04:16:32.637Z,18.17
2023-03-22T04:19:00.880Z,17.90
2023-03-22T04:21:29.202Z,18.00
2023-03-22T04:23:59.633Z,18.20
2023-03-22T04:26:30.871Z,20.20
2023-03-22T04:29:24.693Z,18.80
2023-03-22T04:31:58.716Z,18.87
2023-03-22T04:34:36.817Z,20.70
2023-03-22T04:37:08.089Z,20.27
2023-03-22T04:39:39.394Z,20.73
2023-03-22T04:42:34.087Z,19.90
2023-03-22T04:45:15.500Z,19.80
2023-03-22T04:47:47.462Z,19.30
2023-03-22T04:50:15.763Z,19.90
2023-03-22T04:52:58.456Z,18.67
2023-03-22T04:55:27.685Z,19.93
2023-03-22T04:57:55.980Z,19.90
2023-03-22T05:00:30.062Z,21.17
2023-03-22T05:02:59.362Z,18.40
2023-03-22T05:05:34.372Z,18.70
2023-03-22T05:08:04.328Z,19.50
2023-03-22T05:10:32.493Z,16.90
2023-03-22T05:13:00.636Z,16.83
2023-03-22T05:15:34.598Z,20.03
2023-03-22T05:18:05.149Z,18.93
2023-03-22T05:20:33.521Z,19.30
2023-03-22T05:23:11.603Z,19.00
2023-03-22T05:25:45.065Z,19.73
2023-03-22T05:28:15.415Z,16.37
2023-03-22T05:30:49.389Z,17.67
2023-03-22T05:33:28.056Z,16.67
2023-03-22T05:35:58.157Z,18.43
2023-03-22T05:38:28.675Z,18.17
2023-03-22T05:40:59.945Z,19.20
2023-03-22T05:43:29.485Z,19.17
2023-03-22T05:45:58.957Z,18.67
2023-03-22T05:48:40.573Z,17.80
2023-03-22T05:51:13.450Z,19.00
2023-03-22T05:53:41.757Z,19.80
2023-03-22T05:56:21.833Z,18.60
2023-03-22T05:58:50.861Z,18.97
2023-03-22T06:01:23.161Z,16.87
2023-03-22T06:04:10.749Z,20.83
2023-03-22T06:06:51.429Z,17.50
2023-03-22T06:09:50.188Z,18.40
2023-03-22T06:12:24.814Z,19.20
2023-03-22T06:15:14.092Z,18.73
2023-03-22T06:18:01.866Z,18.37
2023-03-22T06:20:35.253Z,16.80
2023-03-22T06:23:09.620Z,16.27
2023-03-22T06:25:39.909Z,18.47
2023-03-22T06:28:08.837Z,18.53
2023-03-22T06:30:38.590Z,18.03
2023-03-22T06:33:46.524Z,16.50
2023-03-22T06:36:24.643Z,16.40
2023-03-22T06:39:05.248Z,16.00
2023-03-22T06:41:33.926Z,17.17
2023-03-22T06:44:02.682Z,17.53
2023-03-22T06:46:56.666Z,17.67
2023-03-22T06:50:01.452Z,17.73
2023-03-22T06:52:49.620Z,17.20
2023-03-22T06:55:17.881Z,16.70
2023-03-22T06:57:46.047Z,16.37
2023-03-22T07:00:15.982Z,17.00
2023-03-22T07:02:44.154Z,16.97
2023-03-22T07:05:28.901Z,16.47
2023-03-22T07:07:57.091Z,16.87
2023-03-22T07:10:27.094Z,16.30
2023-03-22T07:12:55.365Z,15.90
2023-03-22T07:15:24.784Z,16.40
2023-03-22T07:18:00.698Z,16.40
2023-03-22T07:20:30.325Z,14.63
2023-03-22T07:22:58.603Z,15.33
2023-03-22T07:25:29.855Z,16.23
2023-03-22T07:28:11.418Z,14.83
2023-03-22T07:30:40.693Z,16.10
2023-03-22T07:33:11.498Z,15.53
2023-03-22T07:35:42.208Z,15.37
2023-03-22T07:38:11.466Z,15.60
2023-03-22T07:40:39.823Z,15.07
2023-03-22T07:43:12.019Z,15.30
2023-03-22T07:45:58.044Z,16.00
2023-03-22T07:48:49.074Z,15.10
2023-03-22T07:51:56.533Z,14.30
2023-03-22T07:54:33.467Z,13.30
2023-03-22T07:57:03.392Z,14.33
2023-03-22T07:59:33.740Z,14.57
2023-03-22T08:02:02.688Z,14.20
2023-03-22T08:04:36.514Z,13.83
2023-03-22T08:07:13.811Z,12.90
2023-03-22T08:09:42.877Z,13.23
2023-03-22T08:12:12.132Z,14.27
2023-03-22T08:14:41.286Z,14.17
2023-03-22T08:17:16.437Z,14.70
2023-03-22T08:19:45.306Z,13.10
2023-03-22T08:22:18.867Z,13.60
2023-03-22T08:25:14.202Z,11.97
2023-03-22T08:27:42.444Z,13.20
2023-03-22T08:30:11.837Z,13.03
2023-03-22T08:32:39.974Z,12.03
2023-03-22T08:35:09.396Z,12.70
2023-03-22T08:37:40.044Z,11.80
2023-03-22T08:40:10.338Z,12.93
2023-03-22T08:42:42.950Z,12.80
2023-03-22T08:45:11.551Z,11.47
2023-03-22T08:47:49.888Z,11.33
2023-03-22T08:50:24.324Z,11.87
2023-03-22T08:53:02.711Z,12.27
2023-03-22T08:55:35.384Z,11.10
2023-03-22T08:58:13.171Z,10.70
2023-03-22T09:00:55.799Z,10.53
2023-03-22T09:03:41.467Z,11.00
2023-03-22T09:06:11.061Z,10.40
2023-03-22T09:08:42.686Z,10.60
2023-03-22T09:11:16.647Z,10.13
2023-03-22T09:13:46.924Z,9.73
2023-03-22T09:16:15.196Z,7.93
2023-03-22T09:18:45.830Z,8.97
2023-03-22T09:21:17.912Z,8.97
2023-03-22T09:23:53.412Z,10.57
2023-03-22T09:26:27.185Z,9.63
2023-03-22T09:28:56.256Z,9.17
2023-03-22T09:31:24.942Z,8.87
2023-03-22T09:34:04.521Z,8.57
2023-03-22T09:36:34.303Z,9.10
2023-03-22T09:39:07.239Z,9.90
2023-03-22T09:41:39.772Z,9.00
2023-03-22T09:44:13.443Z,8.90
2023-03-22T09:46:45.662Z,8.10
2023-03-22T09:49:18.906Z,9.70
2023-03-22T09:51:49.666Z,8.20
2023-03-22T09:54:21.731Z,12.17
2023-03-22T09:56:54.012Z,14.63
2023-03-22T09:59:27.124Z,10.37
2023-03-22T10:02:00.055Z,10.67
2023-03-22T10:04:47.881Z,11.77
2023-03-22T10:07:27.354Z,10.00
2023-03-22T10:10:07.985Z,12.97
2023-03-22T10:12:43.736Z,12.60
2023-03-22T10:15:15.053Z,12.13
2023-03-22T10:17:47.226Z,9.00
2023-03-22T10:20:29.006Z,10.00
2023-03-22T10:23:01.469Z,8.57
2023-03-22T10:25:36.473Z,8.30
2023-03-22T10:28:15.405Z,8.30
2023-03-22T10:30:45.236Z,10.47
2023-03-22T10:33:17.822Z,8.37
2023-03-22T10:35:46.827Z,8.10
2023-03-22T10:38:20.654Z,11.13
2023-03-22T10:40:51.207Z,12.23
2023-03-22T10:43:23.778Z,7.10
2023-03-22T10:45:54.174Z,7.50
2023-03-22T10:48:28.693Z,8.70
2023-03-22T10:50:59.452Z,7.90
2023-03-22T10:53:35.934Z,8.80
2023-03-22T10:56:06.910Z,7.17
2023-03-22T10:58:36.258Z,7.37
2023-03-22T11:01:08.293Z,6.30
2023-03-22T11:03:41.577Z,6.83
2023-03-22T11:06:13.273Z,6.77
2023-03-22T11:08:45.074Z,6.80
2023-03-22T11:11:21.059Z,6.90
2023-03-22T11:14:01.030Z,6.43
2023-03-22T11:16:30.520Z,6.23
2023-03-22T11:19:02.060Z,6.27
2023-03-22T11:21:32.744Z,5.70
2023-03-22T11:24:04.767Z,6.23
2023-03-22T11:26:38.996Z,6.77
2023-03-22T11:29:14.972Z,6.60
2023-03-22T11:31:58.154Z,6.07
2023-03-22T11:34:29.396Z,6.00
2023-03-22T11:37:01.227Z,6.57
2023-03-22T11:39:30.621Z,5.50
2023-03-22T11:42:03.793Z,6.30
2023-03-22T11:44:35.532Z,6.37
2023-03-22T11:47:05.327Z,4.77
2023-03-22T11:49:41.143Z,4.40
2023-03-22T11:52:12.640Z,4.53
2023-03-22T11:54:42.748Z,3.80
2023-03-22T11:57:16.821Z,4.60
2023-03-22T11:59:53.806Z,4.60
2023-03-22T12:02:27.871Z,4.13
2023-03-22T12:05:01.797Z,4.63
2023-03-22T12:07:32.598Z,3.93
2023-03-22T12:10:06.426Z,3.37
2023-03-22T12:12:41.213Z,3.67
2023-03-22T12:15:16.422Z,2.93
2023-03-22T12:17:50.152Z,2.77
2023-03-22T12:20:26.393Z,2.10
2023-03-22T12:22:56.216Z,2.60
2023-03-22T12:25:28.362Z,2.13
2023-03-22T12:28:03.594Z,1.73
2023-03-22T12:30:34.911Z,2.37
2023-03-22T12:33:07.644Z,2.00
2023-03-22T12:35:39.984Z,3.10
2023-03-22T12:38:19.017Z,3.03
2023-03-22T12:40:48.694Z,2.37
2023-03-22T12:43:28.854Z,3.10
2023-03-22T12:46:01.011Z,2.33
2023-03-22T12:48:37.333Z,2.80
2023-03-22T12:51:07.717Z,2.43
2023-03-22T12:53:42.908Z,2.40
2023-03-22T12:56:14.236Z,2.67
2023-03-22T12:58:48.012Z,2.63
2023-03-22T13:01:30.068Z,2.40
2023-03-22T13:03:59.462Z,2.60
2023-03-22T13:06:34.131Z,2.60
2023-03-22T13:09:15.705Z,2.37
2023-03-22T13:11:45.890Z,2.70
2023-03-22T13:14:57.713Z,2.80
2023-03-22T13:17:41.862Z,1.87
2023-03-22T13:20:27.801Z,1.77
2023-03-22T13:23:02.184Z,1.80
2023-03-22T13:25:34.881Z,2.80
2023-03-22T13:28:05.175Z,1.40
2023-03-22T13:30:36.884Z,1.30
2023-03-22T13:33:21.248Z,1.77
2023-03-22T13:35:53.933Z,1.67
2023-03-22T13:38:24.746Z,1.70
2023-03-22T13:41:00.667Z,1.50
2023-03-22T13:43:32.789Z,1.33
2023-03-22T13:46:11.295Z,1.50
2023-03-22T13:48:59.595Z,1.37
2023-03-22T13:51:32.019Z,1.63
2023-03-22T13:54:05.507Z,1.83
2023-03-22T13:56:47.899Z,2.80
2023-03-22T13:59:21.328Z,1.53
2023-03-22T14:01:52.477Z,1.30
2023-03-22T14:04:26.644Z,1.17
2023-03-22T14:06:59.911Z,2.30
2023-03-22T14:09:32.345Z,1.87
2023-03-22T14:12:06.559Z,3.30
2023-03-22T14:14:40.881Z,2.07
2023-03-22T14:17:18.820Z,2.00
2023-03-22T14:19:49.782Z,1.00
